Time;durP1;ratioP1;P1;durP2;ratioP2;P2;SDS_P1;SDS_P2;PMS_P1;PMS_P2;Temp;Humidity;BMP_temperature;BMP_pressure;BME280_temperature;BME280_humidity;BME280_pressure;Samples;Min_cycle;Max_cycle;Signal;HPM_P1;HPM_P2
2021/06/08 00:02:21;;;;;;;15.25;13.65;;;17.30;99.90;;;;;;5053887;28;20052;-73
2021/06/08 00:04:47;;;;;;;15.50;13.90;;;17.30;99.90;;;;;;5059544;28;20029;-73
2021/06/08 00:07:14;;;;;;;16.95;14.75;;;17.20;99.90;;;;;;5071557;28;20031;-73
2021/06/08 00:09:40;;;;;;;15.75;14.15;;;17.20;99.90;;;;;;5071764;28;20454;-74
2021/06/08 00:12:07;;;;;;;16.50;13.52;;;17.20;99.90;;;;;;5058884;28;20044;-73
2021/06/08 00:14:33;;;;;;;16.95;15.15;;;17.20;99.90;;;;;;5060580;28;20032;-74
2021/06/08 00:16:59;;;;;;;19.15;15.45;;;17.10;99.90;;;;;;5058740;28;20040;-73
2021/06/08 00:19:25;;;;;;;17.90;16.00;;;17.10;99.90;;;;;;5034960;28;20512;-74
2021/06/08 00:21:52;;;;;;;18.02;14.63;;;17.10;99.90;;;;;;5052656;28;20063;-73
2021/06/08 00:24:18;;;;;;;19.52;15.13;;;17.10;99.90;;;;;;5053088;28;20024;-73
2021/06/08 00:26:44;;;;;;;17.70;15.95;;;17.00;99.90;;;;;;5052931;28;20041;-72
2021/06/08 00:29:10;;;;;;;17.63;15.73;;;16.90;99.90;;;;;;5052511;28;20037;-73
2021/06/08 00:31:36;;;;;;;21.25;16.67;;;16.90;99.90;;;;;;5053184;28;20382;-76
2021/06/08 00:34:03;;;;;;;17.58;15.77;;;16.80;99.90;;;;;;5038148;28;20048;-73
2021/06/08 00:36:29;;;;;;;22.85;16.67;;;16.80;99.90;;;;;;5067099;28;20045;-73
2021/06/08 00:38:55;;;;;;;19.25;17.35;;;16.80;99.90;;;;;;5065239;28;20028;-73
2021/06/08 00:41:44;;;;;;;19.77;17.70;;;16.70;99.90;;;;;;5055456;28;20039;-73
2021/06/08 00:44:13;;;;;;;19.38;16.77;;;16.70;99.90;;;;;;5053265;28;20036;-73
2021/06/08 00:46:41;;;;;;;20.20;17.02;;;16.60;99.90;;;;;;5034174;28;20045;-74
2021/06/08 00:49:07;;;;;;;21.55;17.77;;;16.60;99.90;;;;;;5052362;28;20045;-75
2021/06/08 00:51:33;;;;;;;20.13;18.17;;;16.50;99.90;;;;;;5051012;28;20478;-73
2021/06/08 00:54:05;;;;;;;20.05;17.90;;;16.50;99.90;;;;;;5052478;28;20036;-75
2021/06/08 00:56:33;;;;;;;20.65;18.40;;;16.50;99.90;;;;;;5053594;28;20044;-72
2021/06/08 00:59:00;;;;;;;22.52;19.88;;;16.40;99.90;;;;;;5061522;28;20033;-73
2021/06/08 01:01:26;;;;;;;23.15;20.40;;;16.40;99.90;;;;;;5057927;28;20047;-73
2021/06/08 01:03:53;;;;;;;23.65;21.20;;;16.30;99.90;;;;;;5071780;28;20040;-74
2021/06/08 01:06:19;;;;;;;23.48;21.08;;;16.30;99.90;;;;;;5064029;28;20029;-74
2021/06/08 01:08:45;;;;;;;24.40;21.60;;;16.30;99.90;;;;;;5052433;28;20048;-74
2021/06/08 01:11:11;;;;;;;24.90;22.30;;;16.30;99.90;;;;;;5034774;28;20033;-73
2021/06/08 01:13:40;;;;;;;24.20;21.90;;;16.30;99.90;;;;;;5064416;28;20033;-77
2021/06/08 01:16:06;;;;;;;24.75;20.95;;;16.30;99.90;;;;;;5071460;28;20081;-74
2021/06/08 01:18:33;;;;;;;25.63;21.48;;;16.30;99.90;;;;;;5058079;28;20029;-74
2021/06/08 01:21:09;;;;;;;23.75;21.33;;;16.30;99.90;;;;;;5061211;28;20032;-74
2021/06/08 01:23:37;;;;;;;24.17;21.73;;;16.30;99.90;;;;;;5064267;28;20037;-74
2021/06/08 01:26:05;;;;;;;24.05;21.63;;;16.30;99.90;;;;;;5063227;28;20489;-73
2021/06/08 01:28:33;;;;;;;23.42;21.05;;;16.30;99.90;;;;;;5070681;28;20469;-74
2021/06/08 01:31:07;;;;;;;24.55;21.90;;;16.30;99.90;;;;;;5052896;28;20039;-74
2021/06/08 01:33:38;;;;;;;23.33;20.92;;;16.30;99.90;;;;;;5044095;28;20052;-74
2021/06/08 01:36:06;;;;;;;24.40;20.98;;;16.40;99.90;;;;;;5052325;28;20044;-74
2021/06/08 01:38:35;;;;;;;24.92;22.23;;;16.40;99.90;;;;;;5052882;28;20044;-74
2021/06/08 01:41:01;;;;;;;24.90;22.33;;;16.40;99.90;;;;;;5051831;28;20032;-74
2021/06/08 01:43:27;;;;;;;25.85;22.27;;;16.40;99.90;;;;;;5051777;28;20045;-74
2021/06/08 01:45:53;;;;;;;26.13;23.58;;;16.30;99.90;;;;;;5051771;28;20044;-75
2021/06/08 01:48:20;;;;;;;25.02;22.38;;;16.40;99.90;;;;;;5051946;28;20424;-74
2021/06/08 01:50:48;;;;;;;24.98;21.95;;;16.30;99.90;;;;;;5051934;28;20029;-72
2021/06/08 01:53:44;;;;;;;35.58;22.08;;;16.40;99.90;;;;;;5063953;28;20040;-74
2021/06/08 01:56:15;;;;;;;25.85;21.80;;;16.40;99.90;;;;;;5054816;28;20048;-73
2021/06/08 01:59:03;;;;;;;26.75;22.35;;;16.40;99.90;;;;;;5051267;28;20060;-74
2021/06/08 02:02:10;;;;;;;24.63;22.02;;;16.40;99.90;;;;;;5051988;28;20029;-74
2021/06/08 02:04:48;;;;;;;24.42;21.00;;;16.40;99.90;;;;;;5051636;28;20037;-73
2021/06/08 02:07:43;;;;;;;25.58;22.92;;;16.30;99.90;;;;;;5052204;28;20036;-73
2021/06/08 02:10:31;;;;;;;25.55;21.45;;;16.30;99.90;;;;;;5051938;28;20032;-74
2021/06/08 02:13:12;;;;;;;22.17;19.77;;;16.30;99.90;;;;;;5051406;28;20082;-73
2021/06/08 02:15:50;;;;;;;24.48;21.42;;;16.30;99.90;;;;;;5062490;28;20049;-76
2021/06/08 02:18:17;;;;;;;25.75;21.38;;;16.20;99.90;;;;;;5051980;28;20120;-73
2021/06/08 02:20:46;;;;;;;24.50;21.90;;;16.30;99.90;;;;;;5052036;28;20029;-74
2021/06/08 02:23:18;;;;;;;25.25;22.48;;;16.20;99.90;;;;;;5054438;28;20059;-73
2021/06/08 02:25:45;;;;;;;24.45;21.88;;;16.20;99.90;;;;;;5056191;28;20497;-74
2021/06/08 02:28:14;;;;;;;24.17;21.83;;;16.20;99.90;;;;;;5054995;28;20033;-75
2021/06/08 02:30:44;;;;;;;27.77;22.23;;;16.20;99.90;;;;;;5051425;28;20471;-76
2021/06/08 02:33:10;;;;;;;23.77;21.13;;;16.20;99.90;;;;;;5054668;28;20043;-74
2021/06/08 02:35:38;;;;;;;27.08;21.30;;;16.20;99.90;;;;;;5040851;28;20502;-74
2021/06/08 02:38:05;;;;;;;25.85;22.45;;;16.20;99.90;;;;;;5069991;28;20037;-74
2021/06/08 02:40:32;;;;;;;23.35;21.05;;;16.20;99.90;;;;;;5060344;28;20044;-73
2021/06/08 02:43:00;;;;;;;22.98;20.50;;;16.20;99.90;;;;;;5054721;28;20601;-74
2021/06/08 02:45:28;;;;;;;24.85;21.42;;;16.20;99.90;;;;;;5052206;28;20044;-74
2021/06/08 02:47:56;;;;;;;22.85;20.63;;;16.20;99.90;;;;;;5066300;28;20390;-74
2021/06/08 02:50:24;;;;;;;23.75;21.20;;;16.20;99.90;;;;;;5069315;28;20127;-74
2021/06/08 02:52:54;;;;;;;22.35;20.25;;;16.20;99.90;;;;;;5052157;28;20044;-74
2021/06/08 02:55:25;;;;;;;23.67;21.33;;;16.20;99.90;;;;;;5051286;28;20509;-74
2021/06/08 02:57:54;;;;;;;21.83;19.55;;;16.20;99.90;;;;;;5051310;28;20041;-73
2021/06/08 03:00:22;;;;;;;22.30;20.02;;;16.30;99.90;;;;;;5051082;28;20044;-73
2021/06/08 03:02:52;;;;;;;23.08;20.65;;;16.20;99.90;;;;;;5051039;28;20033;-73
2021/06/08 03:05:26;;;;;;;22.83;20.52;;;16.20;99.90;;;;;;5058522;28;20025;-73
2021/06/08 03:07:56;;;;;;;23.48;20.98;;;16.20;99.90;;;;;;5068755;28;20500;-74
2021/06/08 03:10:23;;;;;;;26.00;21.67;;;16.20;99.90;;;;;;5035548;28;20037;-73
2021/06/08 03:12:57;;;;;;;21.88;19.67;;;16.20;99.90;;;;;;5054853;28;20033;-73
2021/06/08 03:15:28;;;;;;;23.63;20.38;;;16.20;99.90;;;;;;5055430;28;20120;-73
2021/06/08 03:17:55;;;;;;;25.95;20.52;;;16.20;99.90;;;;;;5054464;28;20048;-73
2021/06/08 03:20:36;;;;;;;21.98;19.67;;;16.20;99.90;;;;;;5065403;28;20048;-74
2021/06/08 03:23:06;;;;;;;24.13;20.35;;;16.20;99.90;;;;;;5054253;28;20029;-73
2021/06/08 03:25:35;;;;;;;23.63;20.52;;;16.20;99.90;;;;;;5064758;28;20039;-73
2021/06/08 03:28:02;;;;;;;24.00;21.48;;;16.20;99.90;;;;;;5068030;28;20284;-73
2021/06/08 03:30:29;;;;;;;23.42;21.15;;;16.20;99.90;;;;;;5063617;28;20033;-74
2021/06/08 03:32:57;;;;;;;22.75;20.38;;;16.20;99.90;;;;;;5058703;28;20378;-73
2021/06/08 03:35:25;;;;;;;22.50;20.13;;;16.20;99.90;;;;;;5054693;28;20036;-73
2021/06/08 03:37:53;;;;;;;22.92;20.42;;;16.20;99.90;;;;;;5054091;28;20063;-73
2021/06/08 03:40:21;;;;;;;25.02;21.23;;;16.20;99.90;;;;;;5054499;28;20025;-73
2021/06/08 03:42:48;;;;;;;24.52;20.95;;;16.20;99.90;;;;;;5035445;28;20045;-74
2021/06/08 03:45:16;;;;;;;21.50;19.20;;;16.20;99.90;;;;;;5054444;28;20450;-73
2021/06/08 03:47:44;;;;;;;24.13;19.88;;;16.30;99.90;;;;;;5068347;28;20048;-74
2021/06/08 03:50:12;;;;;;;23.25;20.50;;;16.20;99.90;;;;;;5054039;28;20028;-73
2021/06/08 03:52:39;;;;;;;23.02;18.48;;;16.30;99.90;;;;;;5036413;28;20029;-74
2021/06/08 03:55:06;;;;;;;21.17;19.17;;;16.30;99.90;;;;;;5038050;28;20037;-74
2021/06/08 03:57:38;;;;;;;22.40;19.35;;;16.30;99.90;;;;;;5073052;28;20048;-73
2021/06/08 04:00:08;;;;;;;19.95;17.88;;;16.30;99.90;;;;;;5072689;28;20024;-73
2021/06/08 04:02:39;;;;;;;22.48;19.52;;;16.30;99.90;;;;;;5067650;28;20045;-73
2021/06/08 04:05:07;;;;;;;22.38;20.17;;;16.30;99.90;;;;;;5048081;28;20041;-73
2021/06/08 04:07:34;;;;;;;21.17;19.05;;;16.30;99.90;;;;;;5036735;28;20049;-73
2021/06/08 04:10:00;;;;;;;22.95;19.15;;;16.40;99.90;;;;;;5059327;28;20028;-73
2021/06/08 04:12:26;;;;;;;21.15;18.95;;;16.30;99.90;;;;;;5060169;28;20413;-73
2021/06/08 04:14:53;;;;;;;24.63;18.48;;;16.40;99.90;;;;;;5054097;28;20044;-73
2021/06/08 04:17:19;;;;;;;19.90;17.90;;;16.40;99.90;;;;;;5060301;28;20036;-73
2021/06/08 04:19:47;;;;;;;20.55;18.40;;;16.40;99.90;;;;;;5057359;28;20043;-73
2021/06/08 04:22:26;;;;;;;19.10;17.25;;;16.40;99.90;;;;;;5062714;28;20390;-74
2021/06/08 04:24:52;;;;;;;19.92;17.60;;;16.40;99.90;;;;;;5066388;28;20040;-73
2021/06/08 04:27:26;;;;;;;21.33;18.05;;;16.50;99.90;;;;;;5061079;28;20556;-76
2021/06/08 04:29:53;;;;;;;19.52;17.38;;;16.50;99.90;;;;;;5053243;28;20116;-76
2021/06/08 04:32:20;;;;;;;20.05;17.17;;;16.50;99.90;;;;;;5053553;28;20455;-76
2021/06/08 04:34:50;;;;;;;18.92;17.02;;;16.40;99.90;;;;;;5060413;28;20063;-77
2021/06/08 04:37:17;;;;;;;18.70;16.80;;;16.50;99.90;;;;;;5058428;28;20386;-77
2021/06/08 04:39:44;;;;;;;21.13;18.02;;;16.50;99.90;;;;;;5053044;28;20040;-77
2021/06/08 04:42:11;;;;;;;18.90;16.77;;;16.50;99.90;;;;;;5053732;28;20044;-76
2021/06/08 04:44:51;;;;;;;19.02;17.13;;;16.50;99.90;;;;;;5035980;28;20056;-76
2021/06/08 04:47:19;;;;;;;19.40;17.40;;;16.50;99.90;;;;;;5035679;28;20394;-76
2021/06/08 04:49:47;;;;;;;19.02;16.67;;;16.60;99.90;;;;;;5066264;28;20289;-77
2021/06/08 04:52:14;;;;;;;18.58;16.33;;;16.60;99.90;;;;;;5053532;28;20029;-76
2021/06/08 04:54:41;;;;;;;17.52;15.40;;;16.60;99.90;;;;;;5052833;28;20398;-76
2021/06/08 04:57:14;;;;;;;19.33;16.23;;;16.60;99.90;;;;;;5051333;28;20512;-77
2021/06/08 05:00:00;;;;;;;18.58;16.58;;;16.70;99.90;;;;;;5072437;28;20029;-76
2021/06/08 05:02:59;;;;;;;17.63;15.93;;;16.70;99.90;;;;;;5055493;28;20040;-76
2021/06/08 05:05:29;;;;;;;18.27;16.38;;;16.70;99.90;;;;;;5064720;28;20478;-76
2021/06/08 05:07:57;;;;;;;17.33;15.55;;;16.80;99.90;;;;;;5051740;28;20052;-76
2021/06/08 05:10:26;;;;;;;19.08;16.15;;;16.80;99.90;;;;;;5052881;28;20036;-76
2021/06/08 05:12:54;;;;;;;19.15;17.13;;;16.80;99.90;;;;;;5051660;28;20029;-77
2021/06/08 05:15:21;;;;;;;18.20;16.30;;;16.80;99.90;;;;;;5053630;28;20055;-76
2021/06/08 05:17:49;;;;;;;18.88;16.98;;;16.80;99.90;;;;;;5052089;28;20466;-77
2021/06/08 05:20:17;;;;;;;17.65;15.80;;;16.90;99.90;;;;;;5052667;28;20036;-76
2021/06/08 05:22:46;;;;;;;17.17;14.95;;;16.90;99.90;;;;;;5052382;28;20036;-76
2021/06/08 05:25:12;;;;;;;18.17;15.55;;;16.90;99.90;;;;;;5052728;28;20367;-76
2021/06/08 05:27:39;;;;;;;16.58;14.90;;;17.00;99.90;;;;;;5035496;28;20047;-76
2021/06/08 05:30:09;;;;;;;15.25;13.65;;;17.00;99.90;;;;;;5051659;28;20356;-76
2021/06/08 05:32:37;;;;;;;17.90;14.68;;;17.10;99.90;;;;;;5051491;28;20375;-76
2021/06/08 05:35:05;;;;;;;16.08;14.40;;;17.10;99.90;;;;;;5051498;28;20037;-76
2021/06/08 05:37:40;;;;;;;19.30;15.60;;;17.10;99.90;;;;;;5051756;28;20025;-77
2021/06/08 05:40:08;;;;;;;16.63;14.82;;;17.20;99.90;;;;;;5053489;28;20048;-77
2021/06/08 05:42:35;;;;;;;17.35;14.75;;;17.20;99.90;;;;;;5069052;28;20048;-77
2021/06/08 05:45:02;;;;;;;18.52;14.30;;;17.30;99.90;;;;;;5063352;28;20043;-76
2021/06/08 05:47:28;;;;;;;15.32;13.75;;;17.30;99.90;;;;;;5069314;28;20040;-77
2021/06/08 05:49:55;;;;;;;16.23;14.45;;;17.40;99.90;;;;;;5051653;28;20025;-76
2021/06/08 05:52:21;;;;;;;18.60;14.38;;;17.40;99.90;;;;;;5051186;28;20029;-76
2021/06/08 05:54:48;;;;;;;14.95;13.45;;;17.40;99.90;;;;;;5068713;28;20465;-76
2021/06/08 05:57:14;;;;;;;19.98;14.25;;;17.50;99.90;;;;;;5055407;28;20045;-76
2021/06/08 05:59:41;;;;;;;15.73;13.35;;;17.40;99.90;;;;;;5033069;28;20048;-77
2021/06/08 06:02:12;;;;;;;15.85;14.27;;;17.40;99.90;;;;;;5049974;28;20049;-76
2021/06/08 06:04:41;;;;;;;16.55;14.48;;;17.50;99.90;;;;;;5069900;28;20508;-76
2021/06/08 06:07:07;;;;;;;17.13;14.13;;;17.40;99.90;;;;;;5051104;28;20048;-77
2021/06/08 06:09:35;;;;;;;15.32;13.73;;;17.50;99.90;;;;;;5052156;28;20459;-76
2021/06/08 06:12:02;;;;;;;14.68;13.27;;;17.50;99.90;;;;;;5052243;28;20041;-75
2021/06/08 06:14:30;;;;;;;17.23;14.52;;;17.60;99.90;;;;;;5079761;28;20045;-75
2021/06/08 06:16:57;;;;;;;14.57;12.25;;;17.80;99.90;;;;;;5049747;28;20045;-83
2021/06/08 06:19:24;;;;;;;14.15;12.05;;;17.80;99.90;;;;;;5038324;28;20037;-76
2021/06/08 06:21:56;;;;;;;16.25;12.73;;;17.80;99.90;;;;;;5053669;28;20055;-76
2021/06/08 06:24:23;;;;;;;12.93;11.65;;;17.80;99.90;;;;;;5068849;28;20406;-75
2021/06/08 06:26:50;;;;;;;15.55;13.40;;;17.80;99.90;;;;;;5068549;28;20033;-76
2021/06/08 06:29:18;;;;;;;17.13;13.40;;;17.70;99.90;;;;;;5061661;28;20033;-76
2021/06/08 06:31:48;;;;;;;14.60;13.10;;;17.70;99.90;;;;;;5057551;28;20040;-75
2021/06/08 06:34:17;;;;;;;15.20;12.48;;;17.70;99.90;;;;;;4499670;28;15057924;-74
2021/06/08 06:36:46;;;;;;;14.98;12.95;;;17.80;99.90;;;;;;5043172;28;20048;-79
2021/06/08 06:39:23;;;;;;;14.70;12.43;;;17.90;99.90;;;;;;5051948;28;20044;-77
2021/06/08 06:41:51;;;;;;;14.65;13.15;;;17.90;99.90;;;;;;5051440;28;20454;-78
2021/06/08 06:44:19;;;;;;;13.63;12.27;;;17.90;99.90;;;;;;5052423;28;20028;-77
2021/06/08 06:46:48;;;;;;;15.18;12.30;;;17.90;99.90;;;;;;5055528;28;20378;-76
2021/06/08 06:49:14;;;;;;;16.23;14.02;;;18.00;99.90;;;;;;5055934;28;20048;-75
2021/06/08 06:51:44;;;;;;;14.82;13.35;;;18.00;99.90;;;;;;5059050;28;20025;-77
2021/06/08 06:54:11;;;;;;;13.88;12.45;;;18.00;99.90;;;;;;5062011;28;20052;-77
2021/06/08 06:56:38;;;;;;;15.52;13.95;;;18.10;99.90;;;;;;5055605;28;20063;-77
2021/06/08 06:59:05;;;;;;;15.05;13.32;;;18.00;99.90;;;;;;5055211;28;20279;-80
2021/06/08 07:01:32;;;;;;;14.48;12.98;;;18.10;99.90;;;;;;5037278;28;20037;-77
2021/06/08 07:04:00;;;;;;;14.30;12.93;;;18.30;99.90;;;;;;5070479;28;20501;-78
2021/06/08 07:06:28;;;;;;;14.52;12.70;;;18.50;99.90;;;;;;5074481;28;20032;-78
2021/06/08 07:08:57;;;;;;;14.40;12.98;;;18.70;99.90;;;;;;5072886;28;20398;-77
2021/06/08 07:11:24;;;;;;;13.13;11.70;;;18.70;99.90;;;;;;5060736;28;20029;-77
2021/06/08 07:13:52;;;;;;;13.15;11.80;;;18.70;99.90;;;;;;5059391;28;20374;-77
2021/06/08 07:16:23;;;;;;;13.20;11.52;;;18.90;99.90;;;;;;5046534;28;20044;-77
2021/06/08 07:18:49;;;;;;;14.30;11.82;;;19.00;99.90;;;;;;5054531;28;20049;-77
2021/06/08 07:21:17;;;;;;;13.32;12.02;;;19.00;99.90;;;;;;5055206;28;20036;-76
2021/06/08 07:23:49;;;;;;;12.65;11.40;;;19.00;99.90;;;;;;5060182;28;20032;-74
2021/06/08 07:26:17;;;;;;;13.52;12.00;;;19.20;99.90;;;;;;5053205;28;20037;-74
2021/06/08 07:28:46;;;;;;;12.85;11.48;;;19.20;99.90;;;;;;5056921;28;20377;-75
2021/06/08 07:31:28;;;;;;;13.35;11.15;;;19.10;99.90;;;;;;5060886;28;20024;-72
2021/06/08 07:34:03;;;;;;;13.38;11.88;;;19.10;99.90;;;;;;5060262;28;20047;-74
2021/06/08 07:36:43;;;;;;;11.80;10.48;;;19.50;99.90;;;;;;5058361;28;20040;-74
2021/06/08 07:39:19;;;;;;;11.27;10.05;;;20.00;99.90;;;;;;5060582;28;20047;-72
2021/06/08 07:42:02;;;;;;;11.13;10.10;;;20.60;99.90;;;;;;5061377;28;20048;-72
2021/06/08 07:44:32;;;;;;;10.48;9.55;;;20.90;99.90;;;;;;5054544;28;20029;-72
2021/06/08 07:47:03;;;;;;;12.15;10.80;;;21.00;99.90;;;;;;5061662;28;20036;-72
2021/06/08 07:49:33;;;;;;;10.73;9.60;;;20.80;99.90;;;;;;5061912;28;20536;-73
2021/06/08 07:52:02;;;;;;;10.70;9.70;;;21.30;99.90;;;;;;5063298;28;20063;-72
2021/06/08 07:54:30;;;;;;;10.85;9.77;;;21.20;99.90;;;;;;5064671;28;20278;-73
2021/06/08 07:56:57;;;;;;;11.48;10.00;;;21.00;99.90;;;;;;5062678;28;20525;-72
2021/06/08 07:59:23;;;;;;;10.45;9.30;;;21.00;99.90;;;;;;5066259;28;20052;-73
2021/06/08 08:01:50;;;;;;;11.63;9.27;;;21.50;99.90;;;;;;5063791;28;20025;-73
2021/06/08 08:04:20;;;;;;;10.02;9.02;;;21.60;99.90;;;;;;5063810;28;20380;-73
2021/06/08 08:06:53;;;;;;;10.20;9.20;;;21.90;99.80;;;;;;5058150;28;20366;-73
2021/06/08 08:09:20;;;;;;;9.95;8.95;;;22.00;99.30;;;;;;5057166;28;20032;-73
2021/06/08 08:11:50;;;;;;;11.38;9.90;;;21.50;99.80;;;;;;5058925;28;20386;-73
2021/06/08 08:14:17;;;;;;;10.13;8.63;;;21.60;99.30;;;;;;5065843;28;20414;-74
2021/06/08 08:16:46;;;;;;;11.43;10.32;;;21.70;99.30;;;;;;5062603;28;20482;-74
2021/06/08 08:19:15;;;;;;;9.95;8.95;;;21.50;99.00;;;;;;5062674;28;20039;-73
2021/06/08 08:21:41;;;;;;;10.70;9.63;;;21.40;99.60;;;;;;5062473;28;20044;-74
2021/06/08 08:24:08;;;;;;;11.10;9.98;;;21.30;99.60;;;;;;5062842;28;20040;-73
2021/06/08 08:26:35;;;;;;;10.48;9.38;;;21.30;99.60;;;;;;5057576;28;20039;-72
2021/06/08 08:29:03;;;;;;;11.43;10.25;;;21.40;99.50;;;;;;5059320;28;20033;-72
2021/06/08 08:31:31;;;;;;;11.38;9.43;;;21.50;99.10;;;;;;5058229;28;20029;-73
2021/06/08 08:33:58;;;;;;;10.48;8.55;;;21.90;98.20;;;;;;5055952;28;20146;-72
2021/06/08 08:36:30;;;;;;;12.32;10.02;;;22.00;98.00;;;;;;5059293;28;20040;-73
2021/06/08 08:38:58;;;;;;;11.50;10.30;;;21.90;98.50;;;;;;5053051;28;20064;-74
2021/06/08 08:41:25;;;;;;;12.77;10.23;;;21.70;97.80;;;;;;5060102;28;20061;-73
2021/06/08 08:43:51;;;;;;;10.57;9.57;;;21.70;98.30;;;;;;5061425;28;20031;-73
2021/06/08 08:46:19;;;;;;;10.57;9.48;;;21.90;98.20;;;;;;5059396;28;20033;-75
2021/06/08 08:48:54;;;;;;;11.90;10.80;;;21.80;97.70;;;;;;5061288;28;20040;-74
2021/06/08 08:51:22;;;;;;;10.75;9.65;;;21.60;98.00;;;;;;5058632;28;20028;-72
2021/06/08 08:53:51;;;;;;;11.20;9.98;;;21.40;98.80;;;;;;5062362;28;20045;-72
2021/06/08 08:56:17;;;;;;;12.23;11.00;;;21.50;98.40;;;;;;5064177;28;20040;-73
2021/06/08 08:58:46;;;;;;;12.25;11.02;;;21.40;97.90;;;;;;5068863;28;20373;-72
2021/06/08 09:01:13;;;;;;;12.55;11.25;;;21.30;98.40;;;;;;5048671;28;20033;-73
2021/06/08 09:03:39;;;;;;;12.88;11.68;;;21.60;97.80;;;;;;5052794;28;20059;-73
2021/06/08 09:06:07;;;;;;;11.90;10.75;;;21.70;97.50;;;;;;5057863;28;20029;-73
2021/06/08 09:08:33;;;;;;;10.27;9.13;;;22.00;97.10;;;;;;5066836;28;20036;-73
2021/06/08 09:11:00;;;;;;;12.50;11.18;;;22.20;96.90;;;;;;5063347;28;20024;-74
2021/06/08 09:13:27;;;;;;;11.73;10.52;;;22.20;96.90;;;;;;5061607;28;20040;-74
2021/06/08 09:15:54;;;;;;;11.30;10.20;;;21.90;96.90;;;;;;5061137;28;20020;-72
2021/06/08 09:18:24;;;;;;;10.88;9.82;;;22.10;97.30;;;;;;5060801;28;20032;-73
2021/06/08 09:20:51;;;;;;;13.27;10.43;;;22.70;96.00;;;;;;5052314;28;20494;-74
2021/06/08 09:23:24;;;;;;;11.73;10.50;;;22.80;95.40;;;;;;5057359;28;20044;-73
2021/06/08 09:25:52;;;;;;;11.68;10.50;;;22.30;95.60;;;;;;5063953;28;20048;-72
2021/06/08 09:28:20;;;;;;;14.55;11.52;;;22.30;96.00;;;;;;5065208;28;20037;-72
2021/06/08 09:31:05;;;;;;;11.50;10.40;;;22.40;96.10;;;;;;5057149;28;20493;-72
2021/06/08 09:33:45;;;;;;;12.68;11.35;;;22.40;96.00;;;;;;5074982;28;20044;-73
2021/06/08 09:36:18;;;;;;;11.80;10.70;;;22.70;95.80;;;;;;5071995;28;20036;-74
2021/06/08 09:38:47;;;;;;;12.18;11.07;;;23.00;94.40;;;;;;5051419;28;20037;-73
2021/06/08 09:41:16;;;;;;;12.37;11.17;;;22.50;94.80;;;;;;5056990;28;20043;-74
2021/06/08 09:43:58;;;;;;;10.87;9.80;;;23.00;94.10;;;;;;5071454;28;20771;-73
2021/06/08 09:46:50;;;;;;;11.52;10.57;;;23.10;94.00;;;;;;5070847;28;20487;-74
2021/06/08 09:49:35;;;;;;;12.20;10.68;;;23.10;94.00;;;;;;5065701;28;20037;-73
2021/06/08 09:52:07;;;;;;;12.93;9.90;;;22.40;94.60;;;;;;5066075;28;20025;-73
2021/06/08 09:54:36;;;;;;;12.05;10.95;;;22.40;95.40;;;;;;5051927;28;20033;-73
2021/06/08 09:57:21;;;;;;;12.45;11.15;;;22.90;94.00;;;;;;5051014;28;20032;-73
2021/06/08 09:59:56;;;;;;;13.77;10.52;;;23.30;92.80;;;;;;5051760;28;20048;-73
2021/06/08 10:02:28;;;;;;;11.02;9.90;;;23.40;92.80;;;;;;5050928;28;20051;-73
2021/06/08 10:05:16;;;;;;;14.07;12.57;;;23.20;92.70;;;;;;5051968;28;20032;-72
2021/06/08 10:07:43;;;;;;;12.20;11.00;;;23.00;92.30;;;;;;5052152;28;20056;-73
2021/06/08 10:10:11;;;;;;;17.27;11.15;;;23.00;92.30;;;;;;5051764;28;20245;-73
2021/06/08 10:12:58;;;;;;;11.57;10.50;;;23.30;91.70;;;;;;5052292;28;20035;-73
2021/06/08 10:15:30;;;;;;;12.38;11.15;;;23.30;91.90;;;;;;5052132;28;20476;-73
2021/06/08 10:18:07;;;;;;;11.48;10.30;;;23.00;92.60;;;;;;5034354;28;20037;-73
2021/06/08 10:20:39;;;;;;;11.57;10.50;;;23.00;92.80;;;;;;5061325;28;20100;-74
2021/06/08 10:23:17;;;;;;;11.77;10.70;;;22.90;93.00;;;;;;5053826;28;20036;-76
2021/06/08 10:25:44;;;;;;;12.45;11.02;;;22.90;92.70;;;;;;5051622;28;20060;-76
2021/06/08 10:28:12;;;;;;;11.32;10.13;;;22.80;92.90;;;;;;5051616;28;20052;-75
2021/06/08 10:30:41;;;;;;;11.80;10.70;;;22.70;93.30;;;;;;5071427;28;20041;-75
2021/06/08 10:33:07;;;;;;;12.10;10.90;;;22.60;93.50;;;;;;5051171;28;20485;-75
2021/06/08 10:35:36;;;;;;;12.30;11.13;;;22.90;93.10;;;;;;5051862;28;20025;-75
2021/06/08 10:38:04;;;;;;;13.73;12.52;;;23.00;92.60;;;;;;5051258;28;20036;-75
2021/06/08 10:40:32;;;;;;;12.88;11.57;;;22.80;92.70;;;;;;5050895;28;20148;-76
2021/06/08 10:42:58;;;;;;;12.63;11.32;;;22.90;92.40;;;;;;5051435;28;20466;-75
2021/06/08 10:45:36;;;;;;;12.10;11.00;;;23.00;92.20;;;;;;5051645;28;20033;-74
2021/06/08 10:48:27;;;;;;;13.02;11.82;;;23.10;92.30;;;;;;5050749;28;20059;-74
2021/06/08 10:51:15;;;;;;;13.00;11.27;;;23.10;91.90;;;;;;5051592;28;20029;-76
2021/06/08 10:53:45;;;;;;;14.23;12.77;;;23.10;92.00;;;;;;5051803;28;20040;-75
2021/06/08 10:56:23;;;;;;;14.80;13.02;;;22.80;91.80;;;;;;5051272;28;20033;-75
2021/06/08 10:59:01;;;;;;;12.10;10.88;;;22.70;92.00;;;;;;5051555;28;20033;-74
2021/06/08 11:01:41;;;;;;;12.82;11.73;;;22.50;92.80;;;;;;5064540;28;20393;-76
2021/06/08 11:04:08;;;;;;;13.05;11.75;;;22.70;92.10;;;;;;5069820;28;20047;-75
2021/06/08 11:06:37;;;;;;;11.73;10.63;;;22.70;92.50;;;;;;5070120;28;20032;-74
2021/06/08 11:09:12;;;;;;;11.93;10.93;;;22.60;92.00;;;;;;5055191;28;20470;-75
2021/06/08 11:11:59;;;;;;;11.15;10.05;;;22.70;91.90;;;;;;5052002;28;20052;-75
2021/06/08 11:14:36;;;;;;;12.68;11.48;;;22.90;91.40;;;;;;5050997;28;20049;-74
2021/06/08 11:17:36;;;;;;;14.00;12.65;;;22.80;91.50;;;;;;5051129;28;20363;-76
2021/06/08 11:20:14;;;;;;;12.80;11.70;;;22.50;91.80;;;;;;4997261;28;20045;-75
2021/06/08 11:22:41;;;;;;;11.57;10.52;;;23.00;91.60;;;;;;5050243;28;20320;-74
2021/06/08 11:25:29;;;;;;;11.95;10.55;;;22.90;91.60;;;;;;5049966;28;20402;-75
2021/06/08 11:28:00;;;;;;;13.18;11.88;;;22.90;91.10;;;;;;5051151;28;20032;-74
2021/06/08 11:30:42;;;;;;;12.35;11.20;;;22.70;91.80;;;;;;5052052;28;20379;-77
2021/06/08 11:33:33;;;;;;;12.77;11.57;;;22.80;92.00;;;;;;5057221;28;20056;-73
2021/06/08 11:36:01;;;;;;;12.55;11.27;;;22.90;91.70;;;;;;5055512;28;20033;-73
2021/06/08 11:38:33;;;;;;;12.05;10.95;;;23.50;90.60;;;;;;5054714;28;20045;-75
2021/06/08 11:41:11;;;;;;;12.52;11.23;;;23.30;90.40;;;;;;5054353;28;20037;-74
2021/06/08 11:43:37;;;;;;;13.07;11.68;;;23.10;90.80;;;;;;5054747;28;20037;-75
2021/06/08 11:46:12;;;;;;;12.55;11.35;;;23.40;90.60;;;;;;5071788;28;20033;-75
2021/06/08 11:48:41;;;;;;;12.07;10.88;;;23.50;90.20;;;;;;5049838;28;20045;-76
2021/06/08 11:51:22;;;;;;;13.68;12.27;;;23.50;90.50;;;;;;5062987;28;20039;-75
2021/06/08 11:54:31;;;;;;;11.93;10.73;;;23.60;90.30;;;;;;5068352;28;20370;-75
2021/06/08 11:57:34;;;;;;;12.60;11.32;;;23.90;89.70;;;;;;5049829;28;20068;-76
2021/06/08 12:00:01;;;;;;;12.27;11.13;;;23.60;88.40;;;;;;5046934;28;20049;-76
2021/06/08 12:02:37;;;;;;;13.18;11.40;;;23.40;89.60;;;;;;5068990;28;20045;-75
2021/06/08 12:05:25;;;;;;;12.82;11.63;;;23.40;90.50;;;;;;5072651;28;20032;-74
2021/06/08 12:08:05;;;;;;;12.52;11.32;;;23.60;88.40;;;;;;5054150;28;20032;-75
2021/06/08 12:10:36;;;;;;;13.70;12.40;;;23.80;90.30;;;;;;5054307;28;20378;-75
2021/06/08 12:13:03;;;;;;;14.00;12.63;;;23.60;89.00;;;;;;5053697;28;20036;-74
2021/06/08 12:15:38;;;;;;;12.63;11.52;;;23.60;89.10;;;;;;5062126;28;20032;-75
2021/06/08 12:18:09;;;;;;;12.05;10.95;;;24.20;88.00;;;;;;5053779;28;20048;-74
2021/06/08 12:20:47;;;;;;;14.85;12.65;;;24.20;88.60;;;;;;5057144;28;20083;-74
2021/06/08 12:23:29;;;;;;;12.95;11.68;;;24.00;88.30;;;;;;5058484;28;20029;-74
2021/06/08 12:26:11;;;;;;;13.63;12.18;;;24.00;87.90;;;;;;5055964;28;20485;-73
2021/06/08 12:28:39;;;;;;;13.90;12.52;;;23.90;88.40;;;;;;5056547;28;20035;-73
2021/06/08 12:31:18;;;;;;;12.48;11.25;;;24.40;87.70;;;;;;5052125;28;20355;-73
2021/06/08 12:33:46;;;;;;;11.80;10.60;;;24.70;86.20;;;;;;5072451;28;20497;-74
2021/06/08 12:36:14;;;;;;;13.38;12.10;;;24.30;86.70;;;;;;5059719;28;20039;-74
2021/06/08 12:38:48;;;;;;;13.05;11.68;;;24.50;86.20;;;;;;5068914;28;20508;-75
2021/06/08 12:41:15;;;;;;;13.95;11.40;;;24.40;85.20;;;;;;5052870;28;20051;-75
2021/06/08 12:43:54;;;;;;;13.18;11.88;;;24.60;85.30;;;;;;5060948;28;20454;-74
2021/06/08 12:46:32;;;;;;;12.32;11.10;;;24.60;85.30;;;;;;5042364;28;20048;-75
2021/06/08 12:49:07;;;;;;;13.40;12.18;;;24.70;85.30;;;;;;5056245;28;20051;-75